createdAt,value
2018-11-04T00:00:56.601Z,25.77
2018-11-04T00:03:25.764Z,25.50
2018-11-04T00:05:54.492Z,27.20
2018-11-04T00:08:23.359Z,28.20
2018-11-04T00:10:52.222Z,26.53
2018-11-04T00:13:21.143Z,27.10
2018-11-04T00:15:49.980Z,25.97
2018-11-04T00:18:18.906Z,24.73
2018-11-04T00:20:47.923Z,24.47
2018-11-04T00:23:16.715Z,24.20
2018-11-04T00:25:45.814Z,24.87
2018-11-04T00:28:14.597Z,24.60
2018-11-04T00:30:43.528Z,25.03
2018-11-04T00:33:12.457Z,25.87
2018-11-04T00:35:41.200Z,27.60
2018-11-04T00:38:10.065Z,27.07
2018-11-04T00:40:39.149Z,26.30
2018-11-04T00:43:07.907Z,27.17
2018-11-04T00:45:36.758Z,26.00
2018-11-04T00:48:06.034Z,26.43
2018-11-04T00:50:34.778Z,26.47
2018-11-04T00:53:03.706Z,26.90
2018-11-04T00:55:32.805Z,27.33
2018-11-04T00:58:01.590Z,26.80
2018-11-04T01:00:30.458Z,22.50
2018-11-04T01:02:59.342Z,26.73
2018-11-04T01:05:28.153Z,23.30
2018-11-04T01:07:57.053Z,23.57
2018-11-04T01:10:26.250Z,29.87
2018-11-04T01:12:55.093Z,26.97
2018-11-04T01:15:24.320Z,30.97
2018-11-04T01:17:53.415Z,26.63
2018-11-04T01:20:22.311Z,30.33
2018-11-04T01:22:51.110Z,29.17
2018-11-04T01:25:20.206Z,32.73
2018-11-04T01:27:48.863Z,30.03
2018-11-04T01:30:17.836Z,30.83
2018-11-04T01:32:46.520Z,29.40
2018-11-04T01:35:15.329Z,26.70
2018-11-04T01:37:44.289Z,24.70
2018-11-04T01:40:13.120Z,23.57
2018-11-04T01:42:41.887Z,20.80
2018-11-04T01:45:11.402Z,21.50
2018-11-04T01:47:40.311Z,21.17
2018-11-04T01:50:11.622Z,21.90
2018-11-04T01:52:40.406Z,22.67
2018-11-04T01:55:09.930Z,20.70
2018-11-04T01:57:38.651Z,20.00
2018-11-04T02:00:17.235Z,19.43
2018-11-04T02:02:46.622Z,20.17
2018-11-04T02:05:15.677Z,19.63
2018-11-04T02:07:44.304Z,19.77
2018-11-04T02:10:14.214Z,19.17
2018-11-04T02:12:43.256Z,18.90
2018-11-04T02:15:12.947Z,19.27
2018-11-04T02:17:42.160Z,19.70
2018-11-04T02:20:12.090Z,19.93
2018-11-04T02:22:41.503Z,19.83
2018-11-04T02:25:12.190Z,21.47
2018-11-04T02:27:41.606Z,19.93
2018-11-04T02:30:13.857Z,19.57
2018-11-04T02:32:43.710Z,20.57
2018-11-04T02:35:13.094Z,20.77
2018-11-04T02:37:42.056Z,20.43
2018-11-04T02:40:11.586Z,20.80
2018-11-04T02:42:40.434Z,20.27
2018-11-04T02:45:09.833Z,19.10
2018-11-04T02:47:39.045Z,20.60
2018-11-04T02:50:08.927Z,20.97
2018-11-04T02:52:37.945Z,20.77
2018-11-04T02:55:07.324Z,19.80
2018-11-04T02:57:36.568Z,19.30
2018-11-04T03:00:06.668Z,19.67
2018-11-04T03:02:35.764Z,20.63
2018-11-04T03:05:05.207Z,20.40
2018-11-04T03:07:34.373Z,19.33
2018-11-04T03:10:03.300Z,20.07
2018-11-04T03:12:32.148Z,20.30
2018-11-04T03:15:01.131Z,19.83
2018-11-04T03:17:30.010Z,21.30
2018-11-04T03:19:59.247Z,20.07
2018-11-04T03:22:28.424Z,20.13
2018-11-04T03:24:57.431Z,19.30
2018-11-04T03:27:26.340Z,18.80
2018-11-04T03:29:55.309Z,20.43
2018-11-04T03:32:24.229Z,21.57
2018-11-04T03:34:53.559Z,21.33
2018-11-04T03:37:22.616Z,21.03
2018-11-04T03:39:51.709Z,20.67
2018-11-04T03:42:20.974Z,19.07
2018-11-04T03:44:49.876Z,19.30
2018-11-04T03:47:19.076Z,21.60
2018-11-04T03:49:48.090Z,20.30
2018-11-04T03:52:17.126Z,21.20
2018-11-04T03:54:46.201Z,19.27
2018-11-04T03:57:15.235Z,19.30
2018-11-04T03:59:44.085Z,19.17
2018-11-04T04:02:13.216Z,19.67
2018-11-04T04:04:42.051Z,18.63
2018-11-04T04:07:10.819Z,20.30
2018-11-04T04:09:39.768Z,19.10
2018-11-04T04:12:08.820Z,21.27
2018-11-04T04:14:38.141Z,21.43
2018-11-04T04:17:06.909Z,20.77
2018-11-04T04:19:35.988Z,20.60
2018-11-04T04:22:05.129Z,19.90
2018-11-04T04:24:34.197Z,20.67
2018-11-04T04:27:03.283Z,20.03
2018-11-04T04:29:32.565Z,20.30
2018-11-04T04:32:01.493Z,19.60
2018-11-04T04:34:30.394Z,19.00
2018-11-04T04:36:59.216Z,20.50
2018-11-04T04:39:28.055Z,20.70
2018-11-04T04:41:56.906Z,21.57
2018-11-04T04:44:25.848Z,21.60
2018-11-04T04:46:54.751Z,22.17
2018-11-04T04:49:23.519Z,21.00
2018-11-04T04:51:52.639Z,22.80
2018-11-04T04:54:21.618Z,20.53
2018-11-04T04:56:50.651Z,20.87
2018-11-04T04:59:19.524Z,21.03
2018-11-04T05:01:48.379Z,21.30
2018-11-04T05:04:17.382Z,21.87
2018-11-04T05:06:46.280Z,22.77
2018-11-04T05:09:15.166Z,22.40
2018-11-04T05:11:44.081Z,21.73
2018-11-04T05:14:12.977Z,22.80
2018-11-04T05:16:41.766Z,24.13
2018-11-04T05:19:10.760Z,23.67
2018-11-04T05:21:39.495Z,23.93
2018-11-04T05:24:08.599Z,24.17
2018-11-04T05:26:37.526Z,24.47
2018-11-04T05:29:06.531Z,22.67
2018-11-04T05:31:35.432Z,24.70
2018-11-04T05:34:04.721Z,22.97
2018-11-04T05:36:33.579Z,24.40
2018-11-04T05:39:02.447Z,23.90
2018-11-04T05:41:31.378Z,24.87
2018-11-04T05:44:00.271Z,23.37
2018-11-04T05:46:29.236Z,24.37
2018-11-04T05:48:58.069Z,25.33
2018-11-04T05:51:26.867Z,24.87
2018-11-04T05:53:55.812Z,25.23
2018-11-04T05:56:24.760Z,23.33
2018-11-04T05:58:53.590Z,23.57
2018-11-04T06:01:22.328Z,24.13
2018-11-04T06:03:51.311Z,25.97
2018-11-04T06:06:23.120Z,24.40
2018-11-04T06:08:52.324Z,24.23
2018-11-04T06:11:21.093Z,24.10
2018-11-04T06:13:50.153Z,24.23
2018-11-04T06:16:18.822Z,24.50
2018-11-04T06:18:47.824Z,25.67
2018-11-04T06:21:16.698Z,25.83
2018-11-04T06:23:45.393Z,26.07
2018-11-04T06:26:14.128Z,25.63
2018-11-04T06:28:42.925Z,26.47
2018-11-04T06:31:11.774Z,26.67
2018-11-04T06:33:40.383Z,26.00
2018-11-04T06:36:09.423Z,27.87
2018-11-04T06:38:38.166Z,27.73
2018-11-04T06:41:07.056Z,26.37
2018-11-04T06:43:35.814Z,27.10
2018-11-04T06:46:04.778Z,26.00
2018-11-04T06:48:33.655Z,26.77
2018-11-04T06:51:02.410Z,27.53
2018-11-04T06:53:31.103Z,27.43
2018-11-04T06:55:59.930Z,27.80
2018-11-04T06:58:28.698Z,28.63
2018-11-04T07:00:57.449Z,29.83
2018-11-04T07:03:26.610Z,30.33
2018-11-04T07:05:55.360Z,35.43
2018-11-04T07:08:23.969Z,35.70
2018-11-04T07:10:52.703Z,33.07
2018-11-04T07:13:21.299Z,31.57
2018-11-04T07:15:50.313Z,30.03
2018-11-04T07:18:19.195Z,31.03
2018-11-04T07:20:47.867Z,27.23
2018-11-04T07:23:16.540Z,29.67
2018-11-04T07:25:45.430Z,28.30
2018-11-04T07:28:14.299Z,29.00
2018-11-04T07:30:43.043Z,27.60
2018-11-04T07:33:12.137Z,29.77
2018-11-04T07:35:40.959Z,29.20
2018-11-04T07:38:09.706Z,31.37
2018-11-04T07:40:38.416Z,31.63
2018-11-04T07:43:07.183Z,31.33
2018-11-04T07:45:36.052Z,33.00
2018-11-04T07:48:04.976Z,33.83
2018-11-04T07:50:33.891Z,34.30
2018-11-04T07:53:02.597Z,34.20
2018-11-04T07:55:31.378Z,33.87
2018-11-04T07:57:59.968Z,35.73
2018-11-04T08:00:28.767Z,35.60
2018-11-04T08:02:57.893Z,32.93
2018-11-04T08:05:26.614Z,33.83
2018-11-04T08:07:55.455Z,32.17
2018-11-04T08:10:24.268Z,33.00
2018-11-04T08:12:53.218Z,31.40
2018-11-04T08:15:22.052Z,31.03
2018-11-04T08:17:50.910Z,31.00
2018-11-04T08:20:20.660Z,30.33
2018-11-04T08:22:49.372Z,29.23
2018-11-04T08:25:18.292Z,29.47
2018-11-04T08:27:47.062Z,28.00
2018-11-04T08:30:15.956Z,30.17
2018-11-04T08:32:44.667Z,27.87
2018-11-04T08:35:13.543Z,28.70
2018-11-04T08:37:42.224Z,27.93
2018-11-04T08:40:11.250Z,27.27
2018-11-04T08:42:39.886Z,30.33
2018-11-04T08:45:08.843Z,30.17
2018-11-04T08:47:37.544Z,31.97
2018-11-04T08:50:07.597Z,33.03
2018-11-04T08:52:36.535Z,32.40
2018-11-04T08:55:05.700Z,32.20
2018-11-04T08:57:34.480Z,30.60
2018-11-04T09:00:03.571Z,30.03
2018-11-04T09:02:32.132Z,30.23
2018-11-04T09:05:00.863Z,30.80
2018-11-04T09:07:29.520Z,31.10
2018-11-04T09:09:58.367Z,30.30
2018-11-04T09:12:27.150Z,31.07
2018-11-04T09:14:55.877Z,27.83
2018-11-04T09:17:24.712Z,28.33
2018-11-04T09:19:53.555Z,26.30
2018-11-04T09:22:22.405Z,28.13
2018-11-04T09:24:51.031Z,24.83
2018-11-04T09:27:20.116Z,25.97
2018-11-04T09:29:48.815Z,29.23
2018-11-04T09:32:17.547Z,32.43
2018-11-04T09:34:46.411Z,32.03
2018-11-04T09:37:14.986Z,29.13
2018-11-04T09:39:43.771Z,28.87
2018-11-04T09:42:12.679Z,25.33
2018-11-04T09:44:41.884Z,25.87
2018-11-04T09:47:10.606Z,26.30
2018-11-04T09:49:39.373Z,23.60
2018-11-04T09:52:08.110Z,25.53
2018-11-04T09:54:36.928Z,22.93
2018-11-04T09:57:05.700Z,23.90
2018-11-04T09:59:34.420Z,23.90
2018-11-04T10:02:03.159Z,22.17
2018-11-04T10:04:31.948Z,20.93
2018-11-04T10:07:00.761Z,17.27
2018-11-04T10:09:29.485Z,18.47
2018-11-04T10:11:58.184Z,17.00
2018-11-04T10:14:27.095Z,16.53
2018-11-04T10:16:55.716Z,16.83
2018-11-04T10:19:24.756Z,16.43
2018-11-04T10:21:53.315Z,17.27
2018-11-04T10:24:21.972Z,20.20
2018-11-04T10:26:51.195Z,20.70
2018-11-04T10:29:19.843Z,20.80
2018-11-04T10:31:48.596Z,17.03
2018-11-04T10:34:17.607Z,16.57
2018-11-04T10:36:46.525Z,15.83
2018-11-04T10:39:15.240Z,14.93
2018-11-04T10:41:44.052Z,16.57
2018-11-04T10:44:12.869Z,16.17
2018-11-04T10:46:41.691Z,16.03
2018-11-04T10:49:10.417Z,14.17
2018-11-04T10:51:39.362Z,13.53
2018-11-04T10:54:07.996Z,15.37
2018-11-04T10:56:36.712Z,15.73
2018-11-04T10:59:05.615Z,14.67
2018-11-04T11:01:34.386Z,13.40
2018-11-04T11:04:03.051Z,16.10
2018-11-04T11:06:31.727Z,17.63
2018-11-04T11:09:00.424Z,16.97
2018-11-04T11:11:29.092Z,16.37
2018-11-04T11:13:57.819Z,14.27
2018-11-04T11:16:26.557Z,12.87
2018-11-04T11:18:59.619Z,13.07
2018-11-04T11:21:28.372Z,13.60
2018-11-04T11:23:57.487Z,14.10
2018-11-04T11:26:26.355Z,11.97
2018-11-04T11:28:55.241Z,12.63
2018-11-04T11:31:24.217Z,12.23
2018-11-04T11:33:53.043Z,13.47
2018-11-04T11:36:21.790Z,13.13
2018-11-04T11:38:50.475Z,12.93
2018-11-04T11:41:19.336Z,13.30
2018-11-04T11:43:48.011Z,12.37
2018-11-04T11:46:16.745Z,12.67
2018-11-04T11:48:45.532Z,13.47
2018-11-04T11:51:14.331Z,13.40
2018-11-04T11:53:43.199Z,13.43
2018-11-04T11:56:11.794Z,13.17
2018-11-04T11:58:40.575Z,13.50
2018-11-04T12:01:09.318Z,13.97
2018-11-04T12:03:38.065Z,12.90
2018-11-04T12:06:06.752Z,13.77
2018-11-04T12:08:35.619Z,13.80
2018-11-04T12:11:04.107Z,12.67
2018-11-04T12:13:32.908Z,13.50
2018-11-04T12:16:01.732Z,14.63
2018-11-04T12:18:30.606Z,13.27
2018-11-04T12:20:59.347Z,12.57
2018-11-04T12:23:28.481Z,12.50
2018-11-04T12:25:57.300Z,12.57
2018-11-04T12:28:25.896Z,13.20
2018-11-04T12:30:54.576Z,13.30
2018-11-04T12:33:23.180Z,13.40
2018-11-04T12:35:51.873Z,13.30
2018-11-04T12:38:20.704Z,13.03
2018-11-04T12:40:49.459Z,12.20
2018-11-04T12:43:18.227Z,12.63
2018-11-04T12:45:47.265Z,12.50
2018-11-04T12:48:16.008Z,12.93
2018-11-04T12:50:44.825Z,13.53
2018-11-04T12:53:13.614Z,14.13
2018-11-04T12:55:42.384Z,14.33
2018-11-04T12:58:11.337Z,13.03
2018-11-04T13:00:40.026Z,13.23
2018-11-04T13:03:08.956Z,13.27
2018-11-04T13:05:37.750Z,14.67
2018-11-04T13:08:06.567Z,15.03
2018-11-04T13:10:35.168Z,13.33
2018-11-04T13:13:04.122Z,14.40
2018-11-04T13:15:32.934Z,13.97
2018-11-04T13:18:01.806Z,14.57
2018-11-04T13:20:30.571Z,13.57
2018-11-04T13:22:59.366Z,13.00
2018-11-04T13:25:27.785Z,13.93
2018-11-04T13:27:56.518Z,14.87
2018-11-04T13:30:25.656Z,15.10
2018-11-04T13:32:54.406Z,15.07
2018-11-04T13:35:23.161Z,13.50
2018-11-04T13:37:51.894Z,14.43
2018-11-04T13:40:20.794Z,15.03
2018-11-04T13:42:49.366Z,15.07
2018-11-04T13:45:18.347Z,15.33
2018-11-04T13:47:47.499Z,16.03
2018-11-04T13:50:15.859Z,15.97
2018-11-04T13:52:44.888Z,14.90
2018-11-04T13:55:13.919Z,14.47
2018-11-04T13:57:42.535Z,15.13
2018-11-04T14:00:14.420Z,16.03
2018-11-04T14:02:46.525Z,15.10
2018-11-04T14:05:15.409Z,15.23
2018-11-04T14:07:44.142Z,16.10
2018-11-04T14:10:14.122Z,16.27
2018-11-04T14:12:43.524Z,17.53
2018-11-04T14:15:12.916Z,16.53
2018-11-04T14:17:41.573Z,18.10
2018-11-04T14:20:11.456Z,15.50
2018-11-04T14:22:40.639Z,15.83
2018-11-04T14:25:10.234Z,15.60
2018-11-04T14:27:39.749Z,14.70
2018-11-04T14:30:11.385Z,21.73
2018-11-04T14:32:40.282Z,19.07
2018-11-04T14:35:10.155Z,19.80
2018-11-04T14:37:39.581Z,18.30
2018-11-04T14:40:10.378Z,16.83
2018-11-04T14:42:39.993Z,16.50
2018-11-04T14:45:08.684Z,14.70
2018-11-04T14:47:44.037Z,15.33
2018-11-04T14:50:15.706Z,15.47
2018-11-04T14:52:44.512Z,14.87
2018-11-04T14:55:13.219Z,15.60
2018-11-04T14:57:42.189Z,15.90
2018-11-04T15:00:12.932Z,15.93
2018-11-04T15:02:41.774Z,16.43
2018-11-04T15:05:11.079Z,14.57
2018-11-04T15:07:40.174Z,15.00
2018-11-04T15:10:11.443Z,16.10
2018-11-04T15:12:40.252Z,14.43
2018-11-04T15:15:11.380Z,14.03
2018-11-04T15:17:40.526Z,14.90
2018-11-04T15:20:10.368Z,13.40
2018-11-04T15:22:48.910Z,14.63
2018-11-04T15:25:18.884Z,14.87
2018-11-04T15:27:48.043Z,14.33
2018-11-04T15:30:16.803Z,15.43
2018-11-04T15:32:45.484Z,16.03
2018-11-04T15:35:15.028Z,15.83
2018-11-04T15:37:43.965Z,14.87
2018-11-04T15:40:13.668Z,15.73
2018-11-04T15:42:42.563Z,15.20
2018-11-04T15:45:12.605Z,16.37
2018-11-04T15:47:41.775Z,16.37
2018-11-04T15:50:16.932Z,16.73
2018-11-04T15:52:46.084Z,16.40
2018-11-04T15:55:14.788Z,18.03
2018-11-04T15:57:43.891Z,17.87
2018-11-04T16:00:14.203Z,18.03
2018-11-04T16:02:43.148Z,18.00
2018-11-04T16:05:12.111Z,17.27
2018-11-04T16:07:40.783Z,17.90
2018-11-04T16:10:10.496Z,18.27
2018-11-04T16:12:39.615Z,19.27
2018-11-04T16:15:10.183Z,20.80
2018-11-04T16:17:38.900Z,22.07
2018-11-04T16:20:09.272Z,22.70
2018-11-04T16:22:38.460Z,22.20
2018-11-04T16:25:07.765Z,18.43
2018-11-04T16:27:36.514Z,19.90
2018-11-04T16:30:06.748Z,18.60
2018-11-04T16:32:35.969Z,17.90
2018-11-04T16:35:05.230Z,18.10
2018-11-04T16:37:34.052Z,19.83
2018-11-04T16:40:02.805Z,21.13
2018-11-04T16:42:31.477Z,20.80
2018-11-04T16:45:00.478Z,14.37
2018-11-04T16:47:29.197Z,13.37
2018-11-04T16:49:58.123Z,11.17
2018-11-04T16:52:26.805Z,9.60
2018-11-04T16:54:55.444Z,8.80
2018-11-04T16:57:24.275Z,9.33
2018-11-04T16:59:52.984Z,9.03
2018-11-04T17:02:21.805Z,7.90
2018-11-04T17:04:50.515Z,9.13
2018-11-04T17:20:16.644Z,12.77
2018-11-04T17:22:45.945Z,11.70
2018-11-04T17:25:14.735Z,10.30
2018-11-04T17:27:43.667Z,10.83
2018-11-04T17:30:14.458Z,11.60
2018-11-04T17:32:43.647Z,15.13
2018-11-04T17:35:13.355Z,11.20
2018-11-04T17:37:42.644Z,9.93
2018-11-04T17:40:12.180Z,8.63
2018-11-04T17:42:41.039Z,8.37
2018-11-04T17:45:11.472Z,8.60
2018-11-04T17:47:40.260Z,7.67
2018-11-04T17:50:11.457Z,8.53
2018-11-04T17:52:40.212Z,8.30
2018-11-04T17:55:09.368Z,7.03
2018-11-04T17:57:38.005Z,6.03
2018-11-04T18:00:08.333Z,6.67
2018-11-04T18:02:36.929Z,6.67
2018-11-04T18:05:06.389Z,6.10
2018-11-04T18:07:35.318Z,5.47
2018-11-04T18:10:04.407Z,5.70
2018-11-04T18:12:33.240Z,6.60
2018-11-04T18:15:01.898Z,5.70
2018-11-04T18:17:30.578Z,6.33
2018-11-04T18:19:59.295Z,7.83
2018-11-04T18:22:28.205Z,8.70
2018-11-04T18:24:56.841Z,8.60
2018-11-04T18:27:25.853Z,7.67
2018-11-04T18:29:54.534Z,8.10
2018-11-04T18:32:23.622Z,8.47
2018-11-04T18:34:52.335Z,7.87
2018-11-04T18:37:21.482Z,8.73
2018-11-04T18:39:50.281Z,7.50
2018-11-04T18:42:18.998Z,7.47
2018-11-04T18:44:47.991Z,7.67
2018-11-04T18:47:16.723Z,7.00
2018-11-04T18:49:46.308Z,5.73
2018-11-04T18:52:15.213Z,5.70
2018-11-04T18:54:43.933Z,5.03
2018-11-04T18:57:12.586Z,4.97
2018-11-04T18:59:41.320Z,4.87
2018-11-04T19:02:09.969Z,5.03
2018-11-04T19:04:38.861Z,5.33
2018-11-04T19:07:08.092Z,5.57
2018-11-04T19:09:36.820Z,5.93
2018-11-04T19:12:05.793Z,6.10
2018-11-04T19:14:34.536Z,5.13
2018-11-04T19:17:02.985Z,4.07
2018-11-04T19:19:31.712Z,3.83
2018-11-04T19:22:00.515Z,3.40
2018-11-04T19:24:29.144Z,2.90
2018-11-04T19:26:57.676Z,3.00
2018-11-04T19:29:26.540Z,3.07
2018-11-04T19:31:55.208Z,2.83
2018-11-04T19:34:23.974Z,3.17
2018-11-04T19:36:52.752Z,2.63
2018-11-04T19:39:21.468Z,3.23
2018-11-04T19:41:50.431Z,3.00
2018-11-04T19:44:19.069Z,3.10
2018-11-04T19:46:47.961Z,2.77
2018-11-04T19:49:16.538Z,2.50
2018-11-04T19:51:45.415Z,2.93
2018-11-04T19:54:14.046Z,2.97
2018-11-04T19:56:43.031Z,3.23
2018-11-04T19:59:11.818Z,2.50
2018-11-04T20:01:40.668Z,2.17
2018-11-04T20:04:09.506Z,2.23
2018-11-04T20:06:38.452Z,1.90
2018-11-04T20:09:13.442Z,2.20
2018-11-04T20:11:42.574Z,2.07
2018-11-04T20:14:16.641Z,2.00
2018-11-04T20:16:46.409Z,1.90
2018-11-04T20:19:20.459Z,1.50
2018-11-04T20:21:49.408Z,1.80
2018-11-04T20:24:23.731Z,2.47
2018-11-04T20:26:52.623Z,2.53
2018-11-04T20:29:21.352Z,2.87
2018-11-04T20:31:55.400Z,3.20
2018-11-04T20:34:24.156Z,3.40
2018-11-04T20:36:53.085Z,3.70
2018-11-04T20:39:27.722Z,2.93
2018-11-04T20:41:57.864Z,3.20
2018-11-04T20:44:27.827Z,2.93
2018-11-04T20:46:57.870Z,3.40
2018-11-04T20:50:35.576Z,2.80
2018-11-04T20:53:06.344Z,1.97
2018-11-04T20:55:41.673Z,2.20
2018-11-04T20:58:11.833Z,2.40
2018-11-04T21:00:42.282Z,2.17
2018-11-04T21:03:12.354Z,2.43
2018-11-04T21:05:42.753Z,2.50
2018-11-04T21:08:12.364Z,1.60
2018-11-04T21:10:41.180Z,1.80
2018-11-04T21:13:10.021Z,1.93
2018-11-04T21:15:38.801Z,1.97
2018-11-04T21:18:07.789Z,1.80
2018-11-04T21:20:36.476Z,1.80
2018-11-04T21:23:05.382Z,2.77
2018-11-04T21:25:34.379Z,2.63
2018-11-04T21:28:03.090Z,1.73
2018-11-04T21:30:31.844Z,1.93
2018-11-04T21:33:00.540Z,1.73
2018-11-04T21:35:29.227Z,1.83
2018-11-04T21:37:58.253Z,1.30
2018-11-04T21:40:33.551Z,1.10
2018-11-04T21:43:02.501Z,1.07
2018-11-04T21:45:31.213Z,1.30
2018-11-04T21:48:00.231Z,1.80
2018-11-04T21:50:29.071Z,1.43
2018-11-04T21:52:57.770Z,1.30
2018-11-04T21:55:26.753Z,1.30
2018-11-04T21:57:55.578Z,1.10
2018-11-04T22:00:24.416Z,1.30
2018-11-04T22:02:53.497Z,1.60
2018-11-04T22:05:22.144Z,1.07
2018-11-04T22:07:50.979Z,1.43
2018-11-04T22:10:19.637Z,0.93
2018-11-04T22:12:50.104Z,1.17
2018-11-04T22:15:18.941Z,1.50
2018-11-04T22:17:50.351Z,1.20
2018-11-04T22:20:19.413Z,1.50
2018-11-04T22:22:48.141Z,1.30
2018-11-04T22:25:17.133Z,1.60
2018-11-04T22:27:46.658Z,1.10
2018-11-04T22:30:15.685Z,1.17
2018-11-04T22:32:47.431Z,1.47
2018-11-04T22:35:16.296Z,1.33
2018-11-04T22:37:45.271Z,1.40
2018-11-04T22:40:14.137Z,1.33
2018-11-04T22:42:42.875Z,0.93
2018-11-04T22:45:12.359Z,1.30
2018-11-04T22:47:42.019Z,1.20
2018-11-04T22:50:17.735Z,1.30
2018-11-04T22:52:46.820Z,1.40
2018-11-04T22:55:15.522Z,1.83
2018-11-04T22:57:44.774Z,1.90
2018-11-04T23:01:22.062Z,1.83
2018-11-04T23:03:50.854Z,2.30
2018-11-04T23:06:19.884Z,1.80
2018-11-04T23:08:48.744Z,2.17
2018-11-04T23:11:17.515Z,2.00
2018-11-04T23:13:46.428Z,1.77
2018-11-04T23:16:15.295Z,1.57
2018-11-04T23:18:44.166Z,1.80
2018-11-04T23:21:12.900Z,1.57
2018-11-04T23:23:41.745Z,1.63
2018-11-04T23:26:10.532Z,1.43
2018-11-04T23:28:39.716Z,1.37
2018-11-04T23:31:08.716Z,1.53
2018-11-04T23:33:37.591Z,1.80
2018-11-04T23:36:06.434Z,1.50
2018-11-04T23:38:35.458Z,1.40
2018-11-04T23:41:04.378Z,1.70
2018-11-04T23:43:33.079Z,1.47
2018-11-04T23:46:01.819Z,1.30
2018-11-04T23:48:30.910Z,1.37
2018-11-04T23:51:00.001Z,1.20
2018-11-04T23:53:28.930Z,1.17
2018-11-04T23:55:57.603Z,1.60
2018-11-04T23:58:26.439Z,1.20
